sensor_id;sensor_type;location;lat;lon;timestamp;pressure;altitude;pressure_sealevel;temperature;humidity
30744;BME280;17486;46.738;7.622;2023-04-19T00:02:21;95407.91;;;11.47;56.56
30744;BME280;17486;46.738;7.622;2023-04-19T00:04:47;95407.81;;;11.48;56.84
30744;BME280;17486;46.738;7.622;2023-04-19T00:07:13;95406.03;;;11.49;56.65
30744;BME280;17486;46.738;7.622;2023-04-19T00:09:38;95411.25;;;11.49;56.15
30744;BME280;17486;46.738;7.622;2023-04-19T00:12:04;95406.19;;;11.45;56.02
30744;BME280;17486;46.738;7.622;2023-04-19T00:14:29;95390.13;;;11.37;56.32
30744;BME280;17486;46.738;7.622;2023-04-19T00:16:55;95402.78;;;11.45;56.24
30744;BME280;17486;46.738;7.622;2023-04-19T00:19:21;95387.53;;;11.37;56.22
30744;BME280;17486;46.738;7.622;2023-04-19T00:21:48;95396.88;;;11.41;56.03
30744;BME280;17486;46.738;7.622;2023-04-19T00:24:14;95390.88;;;11.39;56.05
30744;BME280;17486;46.738;7.622;2023-04-19T00:26:40;95402.78;;;11.45;56.12
30744;BME280;17486;46.738;7.622;2023-04-19T00:29:05;95407.81;;;11.48;56.67
30744;BME280;17486;46.738;7.622;2023-04-19T00:31:30;95402.00;;;11.43;55.80
30744;BME280;17486;46.738;7.622;2023-04-19T00:33:56;95400.56;;;11.37;56.81
30744;BME280;17486;46.738;7.622;2023-04-19T00:36:21;95391.97;;;11.35;56.78
30744;BME280;17486;46.738;7.622;2023-04-19T00:38:47;95399.78;;;11.35;56.46
30744;BME280;17486;46.738;7.622;2023-04-19T00:41:12;95395.56;;;11.33;56.83
30744;BME280;17486;46.738;7.622;2023-04-19T00:43:38;95402.63;;;11.31;56.29
30744;BME280;17486;46.738;7.622;2023-04-19T00:46:04;95398.31;;;11.30;56.10
30744;BME280;17486;46.738;7.622;2023-04-19T00:48:29;95399.16;;;11.30;56.15
30744;BME280;17486;46.738;7.622;2023-04-19T00:50:55;95377.97;;;11.20;56.04
30744;BME280;17486;46.738;7.622;2023-04-19T00:53:21;95396.09;;;11.22;55.74
30744;BME280;17486;46.738;7.622;2023-04-19T00:55:47;95394.41;;;11.21;55.88
30744;BME280;17486;46.738;7.622;2023-04-19T00:58:15;95402.31;;;11.19;56.47
30744;BME280;17486;46.738;7.622;2023-04-19T01:00:42;95393.03;;;11.14;56.37
30744;BME280;17486;46.738;7.622;2023-04-19T01:03:08;95391.34;;;11.13;55.68
30744;BME280;17486;46.738;7.622;2023-04-19T01:05:33;95400.25;;;11.08;56.33
30744;BME280;17486;46.738;7.622;2023-04-19T01:07:59;95393.47;;;11.04;56.38
30744;BME280;17486;46.738;7.622;2023-04-19T01:10:24;95394.50;;;11.02;56.79
30744;BME280;17486;46.738;7.622;2023-04-19T01:12:50;95386.13;;;10.95;56.68
30744;BME280;17486;46.738;7.622;2023-04-19T01:15:15;95391.31;;;10.95;56.35
30744;BME280;17486;46.738;7.622;2023-04-19T01:17:41;95385.38;;;10.93;56.68
30744;BME280;17486;46.738;7.622;2023-04-19T01:20:06;95384.13;;;10.83;56.66
30744;BME280;17486;46.738;7.622;2023-04-19T01:22:36;95380.34;;;10.71;56.62
30744;BME280;17486;46.738;7.622;2023-04-19T01:25:05;95383.31;;;10.63;56.63
30744;BME280;17486;46.738;7.622;2023-04-19T01:27:31;95386.13;;;10.58;57.15
30744;BME280;17486;46.738;7.622;2023-04-19T01:29:56;95389.41;;;10.44;57.16
30744;BME280;17486;46.738;7.622;2023-04-19T01:32:22;95386.31;;;10.36;57.38
30744;BME280;17486;46.738;7.622;2023-04-19T01:34:48;95388.94;;;10.35;57.37
30744;BME280;17486;46.738;7.622;2023-04-19T01:37:13;95386.34;;;10.35;57.57
30744;BME280;17486;46.738;7.622;2023-04-19T01:39:39;95385.47;;;10.36;57.79
30744;BME280;17486;46.738;7.622;2023-04-19T01:42:04;95382.78;;;10.37;57.81
30744;BME280;17486;46.738;7.622;2023-04-19T01:44:29;95381.94;;;10.37;57.81
30744;BME280;17486;46.738;7.622;2023-04-19T01:46:55;95387.22;;;10.35;57.65
30744;BME280;17486;46.738;7.622;2023-04-19T01:49:20;95386.31;;;10.36;57.91
30744;BME280;17486;46.738;7.622;2023-04-19T01:51:46;95390.72;;;10.34;57.53
30744;BME280;17486;46.738;7.622;2023-04-19T01:54:11;95383.88;;;10.32;57.18
30744;BME280;17486;46.738;7.622;2023-04-19T01:56:36;95383.97;;;10.30;57.47
30744;BME280;17486;46.738;7.622;2023-04-19T01:59:02;95382.34;;;10.27;57.33
30744;BME280;17486;46.738;7.622;2023-04-19T02:01:28;95390.91;;;10.29;57.85
30744;BME280;17486;46.738;7.622;2023-04-19T02:03:53;95382.28;;;10.29;57.28
30744;BME280;17486;46.738;7.622;2023-04-19T02:06:19;95383.88;;;10.32;57.96
30744;BME280;17486;46.738;7.622;2023-04-19T02:08:44;95389.91;;;10.32;57.21
30744;BME280;17486;46.738;7.622;2023-04-19T02:11:11;95388.25;;;10.31;57.78
30744;BME280;17486;46.738;7.622;2023-04-19T02:13:38;95389.91;;;10.32;57.48
30744;BME280;17486;46.738;7.622;2023-04-19T02:16:04;95383.97;;;10.30;57.99
30744;BME280;17486;46.738;7.622;2023-04-19T02:18:30;95386.56;;;10.30;57.51
30744;BME280;17486;46.738;7.622;2023-04-19T02:20:57;95385.84;;;10.26;57.36
30744;BME280;17486;46.738;7.622;2023-04-19T02:23:23;95382.44;;;10.26;58.05
30744;BME280;17486;46.738;7.622;2023-04-19T02:25:48;95386.84;;;10.24;57.71
30744;BME280;17486;46.738;7.622;2023-04-19T02:28:13;95390.34;;;10.23;57.53
30744;BME280;17486;46.738;7.622;2023-04-19T02:30:39;95383.69;;;10.17;57.22
30744;BME280;17486;46.738;7.622;2023-04-19T02:33:04;95380.25;;;10.17;56.88
30744;BME280;17486;46.738;7.622;2023-04-19T02:35:30;95382.22;;;10.11;57.50
30744;BME280;17486;46.738;7.622;2023-04-19T02:37:55;95388.31;;;10.10;57.01
30744;BME280;17486;46.738;7.622;2023-04-19T02:40:21;95384.19;;;10.06;57.33
30744;BME280;17486;46.738;7.622;2023-04-19T02:42:47;95383.63;;;10.00;57.28
30744;BME280;17486;46.738;7.622;2023-04-19T02:45:13;95373.69;;;9.89;57.48
30744;BME280;17486;46.738;7.622;2023-04-19T02:47:38;95380.38;;;9.94;57.18
30744;BME280;17486;46.738;7.622;2023-04-19T02:50:04;95380.44;;;9.93;57.03
30744;BME280;17486;46.738;7.622;2023-04-19T02:52:30;95391.88;;;9.89;57.62
30744;BME280;17486;46.738;7.622;2023-04-19T02:54:55;95384.72;;;9.75;57.13
30744;BME280;17486;46.738;7.622;2023-04-19T02:57:21;95386.59;;;9.71;57.71
30744;BME280;17486;46.738;7.622;2023-04-19T02:59:46;95383.34;;;9.66;57.52
30744;BME280;17486;46.738;7.622;2023-04-19T03:02:12;95383.53;;;9.61;57.64
30744;BME280;17486;46.738;7.622;2023-04-19T03:04:37;95387.91;;;9.61;57.39
30744;BME280;17486;46.738;7.622;2023-04-19T03:07:02;95391.28;;;9.63;57.97
30744;BME280;17486;46.738;7.622;2023-04-19T03:09:28;95387.00;;;9.62;58.17
30744;BME280;17486;46.738;7.622;2023-04-19T03:11:53;95398.28;;;9.61;57.86
30744;BME280;17486;46.738;7.622;2023-04-19T03:14:19;95396.66;;;9.58;57.63
30744;BME280;17486;46.738;7.622;2023-04-19T03:16:44;95397.56;;;9.57;58.57
30744;BME280;17486;46.738;7.622;2023-04-19T03:19:10;95400.25;;;9.56;58.32
30744;BME280;17486;46.738;7.622;2023-04-19T03:21:35;95399.47;;;9.54;58.31
30744;BME280;17486;46.738;7.622;2023-04-19T03:24:01;95394.41;;;9.51;58.45
30744;BME280;17486;46.738;7.622;2023-04-19T03:26:27;95397.91;;;9.50;58.43
30744;BME280;17486;46.738;7.622;2023-04-19T03:28:52;95395.44;;;9.46;58.29
30744;BME280;17486;46.738;7.622;2023-04-19T03:31:17;95390.41;;;9.43;58.41
30744;BME280;17486;46.738;7.622;2023-04-19T03:33:43;95399.00;;;9.44;58.79
30744;BME280;17486;46.738;7.622;2023-04-19T03:36:08;95389.75;;;9.38;58.02
30744;BME280;17486;46.738;7.622;2023-04-19T03:38:33;95390.81;;;9.33;58.03
30744;BME280;17486;46.738;7.622;2023-04-19T03:40:59;95382.53;;;9.24;58.22
30744;BME280;17486;46.738;7.622;2023-04-19T03:43:24;95387.63;;;9.27;58.61
30744;BME280;17486;46.738;7.622;2023-04-19T03:45:50;95392.72;;;9.29;58.15
30744;BME280;17486;46.738;7.622;2023-04-19T03:48:15;95389.34;;;9.27;58.27
30744;BME280;17486;46.738;7.622;2023-04-19T03:50:41;95377.56;;;9.20;57.94
30744;BME280;17486;46.738;7.622;2023-04-19T03:53:06;95384.53;;;9.18;58.42
30744;BME280;17486;46.738;7.622;2023-04-19T03:55:32;95374.31;;;9.15;58.31
30744;BME280;17486;46.738;7.622;2023-04-19T03:57:57;95376.69;;;9.19;58.14
30744;BME280;17486;46.738;7.622;2023-04-19T04:00:22;95374.16;;;9.18;58.42
30744;BME280;17486;46.738;7.622;2023-04-19T04:02:48;95378.25;;;9.23;58.45
30744;BME280;17486;46.738;7.622;2023-04-19T04:05:13;95379.03;;;9.25;58.11
30744;BME280;17486;46.738;7.622;2023-04-19T04:07:39;95376.38;;;9.27;57.73
30744;BME280;17486;46.738;7.622;2023-04-19T04:10:05;95379.75;;;9.29;57.91
30744;BME280;17486;46.738;7.622;2023-04-19T04:12:30;95370.47;;;9.23;58.14
30744;BME280;17486;46.738;7.622;2023-04-19T04:14:56;95387.53;;;9.29;58.24
30744;BME280;17486;46.738;7.622;2023-04-19T04:17:21;95387.78;;;9.23;58.03
30744;BME280;17486;46.738;7.622;2023-04-19T04:19:48;95379.75;;;9.08;58.23
30744;BME280;17486;46.738;7.622;2023-04-19T04:22:14;95399.28;;;9.17;58.57
30744;BME280;17486;46.738;7.622;2023-04-19T04:24:40;95391.50;;;9.17;58.39
30744;BME280;17486;46.738;7.622;2023-04-19T04:27:09;95399.97;;;9.21;58.68
30744;BME280;17486;46.738;7.622;2023-04-19T04:29:35;95390.31;;;9.24;58.99
30744;BME280;17486;46.738;7.622;2023-04-19T04:32:05;95402.41;;;9.25;58.73
30744;BME280;17486;46.738;7.622;2023-04-19T04:34:32;95384.28;;;9.24;58.74
30744;BME280;17486;46.738;7.622;2023-04-19T04:36:58;95398.09;;;9.24;59.21
30744;BME280;17486;46.738;7.622;2023-04-19T04:39:23;95388.84;;;9.19;59.47
30744;BME280;17486;46.738;7.622;2023-04-19T04:41:48;95399.22;;;9.19;59.40
30744;BME280;17486;46.738;7.622;2023-04-19T04:44:16;95403.59;;;9.17;59.52
30744;BME280;17486;46.738;7.622;2023-04-19T04:46:41;95403.69;;;9.15;59.53
30744;BME280;17486;46.738;7.622;2023-04-19T04:49:06;95401.88;;;9.17;59.58
30744;BME280;17486;46.738;7.622;2023-04-19T04:51:32;95385.84;;;9.07;59.92
30744;BME280;17486;46.738;7.622;2023-04-19T04:53:58;95407.06;;;9.17;59.65
30744;BME280;17486;46.738;7.622;2023-04-19T04:56:23;95408.81;;;9.17;59.77
30744;BME280;17486;46.738;7.622;2023-04-19T04:58:50;95405.31;;;9.18;60.48
30744;BME280;17486;46.738;7.622;2023-04-19T05:01:15;95411.22;;;9.21;60.30
30744;BME280;17486;46.738;7.622;2023-04-19T05:03:43;95413.59;;;9.26;60.52
30744;BME280;17486;46.738;7.622;2023-04-19T05:06:09;95401.41;;;9.28;59.98
30744;BME280;17486;46.738;7.622;2023-04-19T05:08:34;95403.78;;;9.34;60.05
30744;BME280;17486;46.738;7.622;2023-04-19T05:10:59;95405.38;;;9.37;59.98
30744;BME280;17486;46.738;7.622;2023-04-19T05:13:25;95401.94;;;9.36;60.08
30744;BME280;17486;46.738;7.622;2023-04-19T05:15:50;95405.00;;;9.46;59.36
30744;BME280;17486;46.738;7.622;2023-04-19T05:18:15;95417.00;;;9.49;59.60
30744;BME280;17486;46.738;7.622;2023-04-19T05:20:41;95413.44;;;9.51;59.29
30744;BME280;17486;46.738;7.622;2023-04-19T05:23:06;95412.47;;;9.54;59.48
30744;BME280;17486;46.738;7.622;2023-04-19T05:25:32;95414.13;;;9.55;59.68
30744;BME280;17486;46.738;7.622;2023-04-19T05:27:57;95404.66;;;9.54;59.42
30744;BME280;17486;46.738;7.622;2023-04-19T05:30:23;95414.78;;;9.60;59.50
30744;BME280;17486;46.738;7.622;2023-04-19T05:32:48;95396.66;;;9.58;59.68
30744;BME280;17486;46.738;7.622;2023-04-19T05:35:14;95403.34;;;9.64;59.76
30744;BME280;17486;46.738;7.622;2023-04-19T05:37:40;95411.66;;;9.72;59.64
30744;BME280;17486;46.738;7.622;2023-04-19T05:40:06;95413.97;;;9.78;59.24
30744;BME280;17486;46.738;7.622;2023-04-19T05:42:34;95421.56;;;9.83;59.85
30744;BME280;17486;46.738;7.622;2023-04-19T05:44:59;95423.03;;;9.89;59.76
30744;BME280;17486;46.738;7.622;2023-04-19T05:47:25;95416.78;;;9.93;59.66
30744;BME280;17486;46.738;7.622;2023-04-19T05:49:50;95410.69;;;9.94;59.86
30744;BME280;17486;46.738;7.622;2023-04-19T05:52:15;95417.50;;;9.96;59.65
30744;BME280;17486;46.738;7.622;2023-04-19T05:54:41;95415.72;;;9.99;59.58
30744;BME280;17486;46.738;7.622;2023-04-19T05:57:07;95417.31;;;10.01;60.44
30744;BME280;17486;46.738;7.622;2023-04-19T05:59:33;95413.66;;;10.05;59.95
30744;BME280;17486;46.738;7.622;2023-04-19T06:01:58;95414.31;;;10.10;59.71
30744;BME280;17486;46.738;7.622;2023-04-19T06:04:25;95417.63;;;10.14;59.52
30744;BME280;17486;46.738;7.622;2023-04-19T06:06:50;95414.69;;;10.22;60.02
30744;BME280;17486;46.738;7.622;2023-04-19T06:09:16;95410.16;;;10.25;59.25
30744;BME280;17486;46.738;7.622;2023-04-19T06:11:43;95414.53;;;10.25;59.36
30744;BME280;17486;46.738;7.622;2023-04-19T06:14:09;95421.84;;;10.17;58.94
30744;BME280;17486;46.738;7.622;2023-04-19T06:16:35;95387.97;;;9.99;59.34
30744;BME280;17486;46.738;7.622;2023-04-19T06:19:00;95419.28;;;10.15;59.88
30744;BME280;17486;46.738;7.622;2023-04-19T06:21:25;95420.16;;;10.16;59.40
30744;BME280;17486;46.738;7.622;2023-04-19T06:23:51;95422.81;;;10.14;60.00
30744;BME280;17486;46.738;7.622;2023-04-19T06:26:16;95415.94;;;10.13;59.55
30744;BME280;17486;46.738;7.622;2023-04-19T06:28:42;95421.97;;;10.13;58.97
30744;BME280;17486;46.738;7.622;2023-04-19T06:31:07;95420.91;;;10.18;59.67
30744;BME280;17486;46.738;7.622;2023-04-19T06:33:32;95422.25;;;10.26;60.21
30744;BME280;17486;46.738;7.622;2023-04-19T06:35:58;95421.97;;;10.33;59.44
30744;BME280;17486;46.738;7.622;2023-04-19T06:38:23;95419.25;;;10.36;59.70
30744;BME280;17486;46.738;7.622;2023-04-19T06:40:48;95429.16;;;10.47;59.65
30744;BME280;17486;46.738;7.622;2023-04-19T06:43:14;95421.97;;;10.52;59.73
30744;BME280;17486;46.738;7.622;2023-04-19T06:45:39;95417.78;;;10.49;59.45
30744;BME280;17486;46.738;7.622;2023-04-19T06:48:05;95415.94;;;10.51;59.64
30744;BME280;17486;46.738;7.622;2023-04-19T06:50:30;95418.13;;;10.60;60.10
30744;BME280;17486;46.738;7.622;2023-04-19T06:52:56;95423.78;;;10.69;59.85
30744;BME280;17486;46.738;7.622;2023-04-19T06:55:21;95417.16;;;10.81;59.99
30744;BME280;17486;46.738;7.622;2023-04-19T06:57:46;95417.88;;;10.84;60.21
30744;BME280;17486;46.738;7.622;2023-04-19T07:00:12;95402.78;;;10.73;60.72
30744;BME280;17486;46.738;7.622;2023-04-19T07:02:38;95431.66;;;10.86;60.92
30744;BME280;17486;46.738;7.622;2023-04-19T07:05:04;95415.19;;;10.86;61.75
30744;BME280;17486;46.738;7.622;2023-04-19T07:07:29;95403.41;;;10.78;61.84
30744;BME280;17486;46.738;7.622;2023-04-19T07:09:54;95418.72;;;10.85;61.51
30744;BME280;17486;46.738;7.622;2023-04-19T07:12:20;95413.19;;;10.73;61.12
30744;BME280;17486;46.738;7.622;2023-04-19T07:14:45;95426.31;;;10.89;61.05
30744;BME280;17486;46.738;7.622;2023-04-19T07:17:11;95419.81;;;10.98;61.37
30744;BME280;17486;46.738;7.622;2023-04-19T07:19:37;95421.09;;;11.07;60.68
30744;BME280;17486;46.738;7.622;2023-04-19T07:22:03;95419.06;;;11.14;60.70
30744;BME280;17486;46.738;7.622;2023-04-19T07:24:30;95419.69;;;11.19;60.17
30744;BME280;17486;46.738;7.622;2023-04-19T07:26:55;95422.97;;;11.22;59.70
30744;BME280;17486;46.738;7.622;2023-04-19T07:29:21;95421.50;;;11.34;59.98
30744;BME280;17486;46.738;7.622;2023-04-19T07:31:47;95427.88;;;11.46;59.97
30744;BME280;17486;46.738;7.622;2023-04-19T07:34:12;95427.34;;;11.57;59.40
30744;BME280;17486;46.738;7.622;2023-04-19T07:36:37;95418.97;;;11.68;59.24
30744;BME280;17486;46.738;7.622;2023-04-19T07:39:03;95395.84;;;11.61;59.05
30744;BME280;17486;46.738;7.622;2023-04-19T07:41:30;95413.28;;;11.77;58.50
30744;BME280;17486;46.738;7.622;2023-04-19T07:43:55;95422.84;;;11.94;58.39
30744;BME280;17486;46.738;7.622;2023-04-19T07:46:21;95419.88;;;12.02;58.49
30744;BME280;17486;46.738;7.622;2023-04-19T07:48:46;95411.03;;;12.04;57.76
30744;BME280;17486;46.738;7.622;2023-04-19T07:51:14;95420.66;;;12.20;58.06
30744;BME280;17486;46.738;7.622;2023-04-19T07:53:45;95411.66;;;12.25;57.12
30744;BME280;17486;46.738;7.622;2023-04-19T07:56:11;95392.00;;;12.20;56.88
30744;BME280;17486;46.738;7.622;2023-04-19T07:58:36;95416.88;;;12.41;56.83
30744;BME280;17486;46.738;7.622;2023-04-19T08:01:03;95410.44;;;12.49;56.78
30744;BME280;17486;46.738;7.622;2023-04-19T08:03:32;95411.03;;;12.54;56.39
30744;BME280;17486;46.738;7.622;2023-04-19T08:06:00;95411.75;;;12.56;56.28
30744;BME280;17486;46.738;7.622;2023-04-19T08:08:26;95407.63;;;12.68;56.04
30744;BME280;17486;46.738;7.622;2023-04-19T08:10:52;95410.22;;;12.84;55.81
30744;BME280;17486;46.738;7.622;2023-04-19T08:13:19;95397.75;;;12.89;55.19
30744;BME280;17486;46.738;7.622;2023-04-19T08:15:45;95403.81;;;13.05;55.04
30744;BME280;17486;46.738;7.622;2023-04-19T08:18:10;95397.22;;;13.14;54.71
30744;BME280;17486;46.738;7.622;2023-04-19T08:20:35;95377.25;;;13.13;54.44
30744;BME280;17486;46.738;7.622;2023-04-19T08:23:01;95398.94;;;13.30;53.75
30744;BME280;17486;46.738;7.622;2023-04-19T08:25:27;95404.00;;;13.33;53.28
30744;BME280;17486;46.738;7.622;2023-04-19T08:27:55;95399.38;;;13.38;53.12
30744;BME280;17486;46.738;7.622;2023-04-19T08:30:21;95390.44;;;13.42;52.75
30744;BME280;17486;46.738;7.622;2023-04-19T08:32:47;95393.03;;;13.42;52.32
30744;BME280;17486;46.738;7.622;2023-04-19T08:35:12;95388.66;;;13.42;52.30
30744;BME280;17486;46.738;7.622;2023-04-19T08:37:38;95373.25;;;13.38;52.38
30744;BME280;17486;46.738;7.622;2023-04-19T08:40:03;95388.66;;;13.42;52.12
30744;BME280;17486;46.738;7.622;2023-04-19T08:42:30;95397.16;;;13.46;51.81
30744;BME280;17486;46.738;7.622;2023-04-19T08:44:59;95383.31;;;13.44;51.70
30744;BME280;17486;46.738;7.622;2023-04-19T08:47:27;95387.72;;;13.43;52.09
30744;BME280;17486;46.738;7.622;2023-04-19T08:49:54;95384.00;;;13.48;52.35
30744;BME280;17486;46.738;7.622;2023-04-19T08:52:22;95385.31;;;13.55;52.26
30744;BME280;17486;46.738;7.622;2023-04-19T08:54:48;95372.94;;;13.58;52.54
30744;BME280;17486;46.738;7.622;2023-04-19T08:57:14;95372.28;;;13.69;52.67
30744;BME280;17486;46.738;7.622;2023-04-19T08:59:39;95378.81;;;13.76;52.51
30744;BME280;17486;46.738;7.622;2023-04-19T09:02:05;95381.81;;;13.85;51.95
30744;BME280;17486;46.738;7.622;2023-04-19T09:04:30;95382.44;;;13.88;51.93
30744;BME280;17486;46.738;7.622;2023-04-19T09:06:55;95376.09;;;13.92;52.24
30744;BME280;17486;46.738;7.622;2023-04-19T09:09:26;95379.38;;;13.96;52.22
30744;BME280;17486;46.738;7.622;2023-04-19T09:11:51;95368.91;;;13.96;51.80
30744;BME280;17486;46.738;7.622;2023-04-19T09:14:18;95374.44;;;14.06;50.91
30744;BME280;17486;46.738;7.622;2023-04-19T09:16:44;95368.81;;;14.12;51.04
30744;BME280;17486;46.738;7.622;2023-04-19T09:19:11;95367.19;;;14.24;50.89
30744;BME280;17486;46.738;7.622;2023-04-19T09:21:37;95361.59;;;14.30;50.95
30744;BME280;17486;46.738;7.622;2023-04-19T09:24:04;95368.47;;;14.46;50.45
30744;BME280;17486;46.738;7.622;2023-04-19T09:26:30;95368.94;;;14.52;50.60
30744;BME280;17486;46.738;7.622;2023-04-19T09:28:56;95370.13;;;14.61;50.51
30744;BME280;17486;46.738;7.622;2023-04-19T09:31:22;95364.72;;;14.64;50.16
30744;BME280;17486;46.738;7.622;2023-04-19T09:33:47;95376.88;;;14.65;49.89
30744;BME280;17486;46.738;7.622;2023-04-19T09:36:32;95362.38;;;14.59;49.83
30744;BME280;17486;46.738;7.622;2023-04-19T09:38:58;95365.06;;;14.58;49.80
30744;BME280;17486;46.738;7.622;2023-04-19T09:41:25;95367.19;;;14.53;50.17
30744;BME280;17486;46.738;7.622;2023-04-19T09:43:51;95342.22;;;14.47;49.58
30744;BME280;17486;46.738;7.622;2023-04-19T09:46:35;95354.47;;;14.47;49.76
30744;BME280;17486;46.738;7.622;2023-04-19T09:51:43;95348.09;;;14.51;49.61
30744;BME280;17486;46.738;7.622;2023-04-19T09:54:10;95347.28;;;14.50;49.43
30744;BME280;17486;46.738;7.622;2023-04-19T09:56:36;95340.78;;;14.56;49.25
30744;BME280;17486;46.738;7.622;2023-04-19T09:59:03;95337.97;;;14.59;49.26
30744;BME280;17486;46.738;7.622;2023-04-19T10:01:34;95335.34;;;14.59;48.90
30744;BME280;17486;46.738;7.622;2023-04-19T10:04:03;95326.66;;;14.58;49.11
30744;BME280;17486;46.738;7.622;2023-04-19T10:06:29;95328.97;;;14.63;49.19
30744;BME280;17486;46.738;7.622;2023-04-19T10:09:00;95333.13;;;14.67;49.76
30744;BME280;17486;46.738;7.622;2023-04-19T10:11:30;95323.94;;;14.74;49.20
30744;BME280;17486;46.738;7.622;2023-04-19T10:13:59;95321.63;;;14.83;49.16
30744;BME280;17486;46.738;7.622;2023-04-19T10:16:25;95321.25;;;14.89;49.18
30744;BME280;17486;46.738;7.622;2023-04-19T10:18:51;95313.19;;;14.92;48.83
30744;BME280;17486;46.738;7.622;2023-04-19T10:21:18;95308.91;;;14.91;48.86
30744;BME280;17486;46.738;7.622;2023-04-19T10:23:44;95311.75;;;15.01;49.11
30744;BME280;17486;46.738;7.622;2023-04-19T10:26:09;95315.31;;;15.13;49.08
30744;BME280;17486;46.738;7.622;2023-04-19T10:28:35;95310.84;;;15.28;48.94
30744;BME280;17486;46.738;7.622;2023-04-19T10:31:03;95312.22;;;15.46;48.58
30744;BME280;17486;46.738;7.622;2023-04-19T10:33:39;95294.72;;;15.59;48.00
30744;BME280;17486;46.738;7.622;2023-04-19T10:36:08;95303.41;;;15.86;48.04
30744;BME280;17486;46.738;7.622;2023-04-19T10:41:04;95302.75;;;16.08;46.82
30744;BME280;17486;46.738;7.622;2023-04-19T10:43:39;95293.41;;;16.17;46.45
30744;BME280;17486;46.738;7.622;2023-04-19T10:46:06;95288.66;;;16.22;46.22
30744;BME280;17486;46.738;7.622;2023-04-19T10:48:33;95294.31;;;16.29;46.02
30744;BME280;17486;46.738;7.622;2023-04-19T10:56:10;95274.75;;;16.57;45.51
30744;BME280;17486;46.738;7.622;2023-04-19T11:01:37;95268.56;;;16.82;45.09
30744;BME280;17486;46.738;7.622;2023-04-19T11:04:11;95272.50;;;16.88;44.94
30744;BME280;17486;46.738;7.622;2023-04-19T11:12:03;95254.56;;;17.17;44.39
30744;BME280;17486;46.738;7.622;2023-04-19T11:14:34;95270.75;;;17.24;44.09
30744;BME280;17486;46.738;7.622;2023-04-19T11:17:03;95267.25;;;17.23;43.68
30744;BME280;17486;46.738;7.622;2023-04-19T11:19:37;95258.88;;;17.18;43.76
30744;BME280;17486;46.738;7.622;2023-04-19T11:22:03;95249.91;;;17.10;43.40
30744;BME280;17486;46.738;7.622;2023-04-19T11:24:28;95247.88;;;17.02;43.51
30744;BME280;17486;46.738;7.622;2023-04-19T11:26:55;95244.38;;;17.01;43.45
30744;BME280;17486;46.738;7.622;2023-04-19T11:29:21;95247.00;;;17.01;43.38
30744;BME280;17486;46.738;7.622;2023-04-19T11:31:47;95242.50;;;17.03;43.25
30744;BME280;17486;46.738;7.622;2023-04-19T11:34:12;95235.81;;;17.11;42.77
30744;BME280;17486;46.738;7.622;2023-04-19T11:36:50;95237.25;;;17.15;43.30
30744;BME280;17486;46.738;7.622;2023-04-19T11:39:17;95221.00;;;17.21;42.72
30744;BME280;17486;46.738;7.622;2023-04-19T11:41:44;95221.63;;;17.24;42.71
30744;BME280;17486;46.738;7.622;2023-04-19T11:44:18;95217.78;;;17.17;42.55
30744;BME280;17486;46.738;7.622;2023-04-19T11:46:59;95227.22;;;17.09;42.66
30744;BME280;17486;46.738;7.622;2023-04-19T11:49:30;95213.94;;;16.99;42.58
30744;BME280;17486;46.738;7.622;2023-04-19T11:52:00;95213.59;;;17.03;42.86
30744;BME280;17486;46.738;7.622;2023-04-19T11:54:26;95220.06;;;17.22;43.31
30744;BME280;17486;46.738;7.622;2023-04-19T11:57:05;95205.13;;;17.34;43.08
30744;BME280;17486;46.738;7.622;2023-04-19T11:59:32;95205.63;;;17.39;42.90
30744;BME280;17486;46.738;7.622;2023-04-19T12:02:08;95192.81;;;17.34;43.10
30744;BME280;17486;46.738;7.622;2023-04-19T12:04:35;95197.13;;;17.35;42.78
30744;BME280;17486;46.738;7.622;2023-04-19T12:07:02;95196.53;;;17.32;43.26
30744;BME280;17486;46.738;7.622;2023-04-19T12:09:28;95191.25;;;17.32;43.16
30744;BME280;17486;46.738;7.622;2023-04-19T12:11:53;95185.66;;;17.36;43.35
30744;BME280;17486;46.738;7.622;2023-04-19T12:14:22;95186.88;;;17.44;43.50
30744;BME280;17486;46.738;7.622;2023-04-19T12:19:43;95178.84;;;17.68;42.65
30744;BME280;17486;46.738;7.622;2023-04-19T12:22:14;95184.91;;;17.80;42.50
30744;BME280;17486;46.738;7.622;2023-04-19T12:24:41;95175.84;;;17.95;42.35
30744;BME280;17486;46.738;7.622;2023-04-19T12:27:09;95170.91;;;18.13;42.22
30744;BME280;17486;46.738;7.622;2023-04-19T12:29:35;95174.25;;;18.36;41.64
30744;BME280;17486;46.738;7.622;2023-04-19T12:32:01;95169.69;;;18.50;41.31
30744;BME280;17486;46.738;7.622;2023-04-19T12:34:27;95158.13;;;18.62;41.24
30744;BME280;17486;46.738;7.622;2023-04-19T12:36:53;95166.53;;;18.77;40.81
30744;BME280;17486;46.738;7.622;2023-04-19T12:39:18;95163.78;;;18.79;40.23
30744;BME280;17486;46.738;7.622;2023-04-19T12:41:44;95165.88;;;18.85;40.09
30744;BME280;17486;46.738;7.622;2023-04-19T12:44:09;95160.13;;;18.91;40.67
30744;BME280;17486;46.738;7.622;2023-04-19T12:46:35;95165.41;;;18.91;40.01
30744;BME280;17486;46.738;7.622;2023-04-19T12:49:00;95157.13;;;18.96;40.33
30744;BME280;17486;46.738;7.622;2023-04-19T12:51:26;95152.16;;;19.02;39.78
30744;BME280;17486;46.738;7.622;2023-04-19T12:53:53;95153.13;;;19.01;39.71
30744;BME280;17486;46.738;7.622;2023-04-19T12:56:19;95129.34;;;18.92;39.85
30744;BME280;17486;46.738;7.622;2023-04-19T12:58:44;95147.84;;;19.01;40.03
30744;BME280;17486;46.738;7.622;2023-04-19T13:01:10;95141.31;;;18.96;39.90
30744;BME280;17486;46.738;7.622;2023-04-19T13:03:35;95140.97;;;18.89;40.19
30744;BME280;17486;46.738;7.622;2023-04-19T13:06:02;95139.16;;;18.68;40.25
30744;BME280;17486;46.738;7.622;2023-04-19T13:08:27;95133.31;;;18.65;40.50
30744;BME280;17486;46.738;7.622;2023-04-19T13:10:54;95135.50;;;18.60;40.71
30744;BME280;17486;46.738;7.622;2023-04-19T13:13:20;95138.06;;;18.50;40.65
30744;BME280;17486;46.738;7.622;2023-04-19T13:15:46;95123.47;;;18.46;40.76
30744;BME280;17486;46.738;7.622;2023-04-19T13:18:11;95119.06;;;18.46;40.89
30744;BME280;17486;46.738;7.622;2023-04-19T13:20:36;95112.09;;;18.45;40.75